sensor_id;sensor_type;location;lat;lon;timestamp;P1;P2;P0
55043;PMS5003;54902;50.420;18.854;2023-05-10T00:00:16;10;10;8
55043;PMS5003;54902;50.420;18.854;2023-05-10T00:00:48;10;10;8
55043;PMS5003;54902;50.420;18.854;2023-05-10T00:01:18;10;10;8
55043;PMS5003;54902;50.420;18.854;2023-05-10T00:01:49;10;10;8
55043;PMS5003;54902;50.420;18.854;2023-05-10T00:02:20;10;10;8
55043;PMS5003;54902;50.420;18.854;2023-05-10T00:02:51;10;10;8
55043;PMS5003;54902;50.420;18.854;2023-05-10T00:03:22;10;10;8
55043;PMS5003;54902;50.420;18.854;2023-05-10T00:03:53;13;13;10
55043;PMS5003;54902;50.420;18.854;2023-05-10T00:04:25;13;13;10
55043;PMS5003;54902;50.420;18.854;2023-05-10T00:04:57;13;13;10
55043;PMS5003;54902;50.420;18.854;2023-05-10T00:05:28;13;13;10
55043;PMS5003;54902;50.420;18.854;2023-05-10T00:05:59;13;13;10
55043;PMS5003;54902;50.420;18.854;2023-05-10T00:06:30;13;13;10
55043;PMS5003;54902;50.420;18.854;2023-05-10T00:07:01;13;13;10
55043;PMS5003;54902;50.420;18.854;2023-05-10T00:07:32;13;13;10
55043;PMS5003;54902;50.420;18.854;2023-05-10T00:08:03;13;13;10
55043;PMS5003;54902;50.420;18.854;2023-05-10T00:08:34;13;13;10
55043;PMS5003;54902;50.420;18.854;2023-05-10T00:09:05;13;13;10
55043;PMS5003;54902;50.420;18.854;2023-05-10T00:09:36;9;9;6
55043;PMS5003;54902;50.420;18.854;2023-05-10T00:10:08;9;9;6
55043;PMS5003;54902;50.420;18.854;2023-05-10T00:10:39;9;9;6
55043;PMS5003;54902;50.420;18.854;2023-05-10T00:11:11;9;9;6
55043;PMS5003;54902;50.420;18.854;2023-05-10T00:11:42;9;9;6
55043;PMS5003;54902;50.420;18.854;2023-05-10T00:12:13;9;9;6
55043;PMS5003;54902;50.420;18.854;2023-05-10T00:12:44;9;9;6
55043;PMS5003;54902;50.420;18.854;2023-05-10T00:13:15;9;9;6
55043;PMS5003;54902;50.420;18.854;2023-05-10T00:13:46;9;9;6
55043;PMS5003;54902;50.420;18.854;2023-05-10T00:14:17;17;17;11
55043;PMS5003;54902;50.420;18.854;2023-05-10T00:14:49;17;17;11
55043;PMS5003;54902;50.420;18.854;2023-05-10T00:15:20;17;17;11
55043;PMS5003;54902;50.420;18.854;2023-05-10T00:15:53;17;17;11
55043;PMS5003;54902;50.420;18.854;2023-05-10T00:16:24;17;17;11
55043;PMS5003;54902;50.420;18.854;2023-05-10T00:16:55;9;9;5
55043;PMS5003;54902;50.420;18.854;2023-05-10T00:17:26;9;9;5
55043;PMS5003;54902;50.420;18.854;2023-05-10T00:17:57;9;9;5
55043;PMS5003;54902;50.420;18.854;2023-05-10T00:18:28;9;9;5
55043;PMS5003;54902;50.420;18.854;2023-05-10T00:18:59;9;9;5
55043;PMS5003;54902;50.420;18.854;2023-05-10T00:19:30;4;4;0
55043;PMS5003;54902;50.420;18.854;2023-05-10T00:20:01;4;4;0
55043;PMS5003;54902;50.420;18.854;2023-05-10T00:20:36;4;4;0
55043;PMS5003;54902;50.420;18.854;2023-05-10T00:21:07;6;6;3
55043;PMS5003;54902;50.420;18.854;2023-05-10T00:21:38;6;6;3
55043;PMS5003;54902;50.420;18.854;2023-05-10T00:22:09;6;6;3
55043;PMS5003;54902;50.420;18.854;2023-05-10T00:22:40;6;6;3
55043;PMS5003;54902;50.420;18.854;2023-05-10T00:23:11;6;6;3
55043;PMS5003;54902;50.420;18.854;2023-05-10T00:23:43;6;6;3
55043;PMS5003;54902;50.420;18.854;2023-05-10T00:24:14;6;6;3
55043;PMS5003;54902;50.420;18.854;2023-05-10T00:24:45;11;11;6
55043;PMS5003;54902;50.420;18.854;2023-05-10T00:25:15;11;11;6
55043;PMS5003;54902;50.420;18.854;2023-05-10T00:25:47;11;11;6
55043;PMS5003;54902;50.420;18.854;2023-05-10T00:26:17;11;11;6
55043;PMS5003;54902;50.420;18.854;2023-05-10T00:26:48;11;11;6
55043;PMS5003;54902;50.420;18.854;2023-05-10T00:27:19;11;11;6
55043;PMS5003;54902;50.420;18.854;2023-05-10T00:27:50;9;9;6
55043;PMS5003;54902;50.420;18.854;2023-05-10T00:28:22;9;9;6
55043;PMS5003;54902;50.420;18.854;2023-05-10T00:28:53;9;9;6
55043;PMS5003;54902;50.420;18.854;2023-05-10T00:29:24;9;9;6
55043;PMS5003;54902;50.420;18.854;2023-05-10T00:29:55;9;9;7
55043;PMS5003;54902;50.420;18.854;2023-05-10T00:30:26;9;9;7
55043;PMS5003;54902;50.420;18.854;2023-05-10T00:30:57;9;9;7
55043;PMS5003;54902;50.420;18.854;2023-05-10T00:31:28;9;9;7
55043;PMS5003;54902;50.420;18.854;2023-05-10T00:31:59;9;9;7
55043;PMS5003;54902;50.420;18.854;2023-05-10T00:32:29;9;9;7
55043;PMS5003;54902;50.420;18.854;2023-05-10T00:33:01;9;9;7
55043;PMS5003;54902;50.420;18.854;2023-05-10T00:33:31;10;10;7
55043;PMS5003;54902;50.420;18.854;2023-05-10T00:34:02;10;10;7
55043;PMS5003;54902;50.420;18.854;2023-05-10T00:34:33;10;10;7
55043;PMS5003;54902;50.420;18.854;2023-05-10T00:35:04;9;7;5
55043;PMS5003;54902;50.420;18.854;2023-05-10T00:35:36;9;7;5
55043;PMS5003;54902;50.420;18.854;2023-05-10T00:36:08;9;7;5
55043;PMS5003;54902;50.420;18.854;2023-05-10T00:36:39;9;7;5
55043;PMS5003;54902;50.420;18.854;2023-05-10T00:37:10;9;7;5
55043;PMS5003;54902;50.420;18.854;2023-05-10T00:37:41;9;7;5
55043;PMS5003;54902;50.420;18.854;2023-05-10T00:38:12;9;7;5
55043;PMS5003;54902;50.420;18.854;2023-05-10T00:38:44;9;7;5
55043;PMS5003;54902;50.420;18.854;2023-05-10T00:39:16;9;7;5
55043;PMS5003;54902;50.420;18.854;2023-05-10T00:39:47;9;7;5
55043;PMS5003;54902;50.420;18.854;2023-05-10T00:40:17;12;10;7
55043;PMS5003;54902;50.420;18.854;2023-05-10T00:40:48;12;10;7
55043;PMS5003;54902;50.420;18.854;2023-05-10T00:41:20;12;10;7
55043;PMS5003;54902;50.420;18.854;2023-05-10T00:41:52;12;10;7
55043;PMS5003;54902;50.420;18.854;2023-05-10T00:42:23;12;10;7
55043;PMS5003;54902;50.420;18.854;2023-05-10T00:42:54;12;10;7
55043;PMS5003;54902;50.420;18.854;2023-05-10T00:43:25;12;10;7
55043;PMS5003;54902;50.420;18.854;2023-05-10T00:43:56;12;10;7
55043;PMS5003;54902;50.420;18.854;2023-05-10T00:44:26;12;10;7
55043;PMS5003;54902;50.420;18.854;2023-05-10T00:44:57;12;10;7
55043;PMS5003;54902;50.420;18.854;2023-05-10T00:45:32;12;10;7
55043;PMS5003;54902;50.420;18.854;2023-05-10T00:46:04;12;10;7
55043;PMS5003;54902;50.420;18.854;2023-05-10T00:46:35;12;10;7
55043;PMS5003;54902;50.420;18.854;2023-05-10T00:47:07;12;10;7
55043;PMS5003;54902;50.420;18.854;2023-05-10T00:47:39;12;10;7
55043;PMS5003;54902;50.420;18.854;2023-05-10T00:48:10;12;10;7
55043;PMS5003;54902;50.420;18.854;2023-05-10T00:48:42;12;10;7
55043;PMS5003;54902;50.420;18.854;2023-05-10T00:49:15;12;10;7
55043;PMS5003;54902;50.420;18.854;2023-05-10T00:49:47;12;10;7
55043;PMS5003;54902;50.420;18.854;2023-05-10T00:50:18;12;10;7
55043;PMS5003;54902;50.420;18.854;2023-05-10T00:50:49;12;10;7
55043;PMS5003;54902;50.420;18.854;2023-05-10T00:51:20;12;10;7
55043;PMS5003;54902;50.420;18.854;2023-05-10T00:51:51;12;10;7
55043;PMS5003;54902;50.420;18.854;2023-05-10T00:52:22;12;10;7
55043;PMS5003;54902;50.420;18.854;2023-05-10T00:52:54;12;10;7
55043;PMS5003;54902;50.420;18.854;2023-05-10T00:53:25;12;10;7
55043;PMS5003;54902;50.420;18.854;2023-05-10T00:53:57;12;10;7
55043;PMS5003;54902;50.420;18.854;2023-05-10T00:54:29;12;10;7
55043;PMS5003;54902;50.420;18.854;2023-05-10T00:55:00;12;10;7
55043;PMS5003;54902;50.420;18.854;2023-05-10T00:55:33;10;9;6
55043;PMS5003;54902;50.420;18.854;2023-05-10T00:56:04;3;3;0
55043;PMS5003;54902;50.420;18.854;2023-05-10T00:56:36;3;3;0
55043;PMS5003;54902;50.420;18.854;2023-05-10T00:57:08;3;3;0
55043;PMS5003;54902;50.420;18.854;2023-05-10T00:57:39;3;3;0
55043;PMS5003;54902;50.420;18.854;2023-05-10T00:58:10;3;3;0
55043;PMS5003;54902;50.420;18.854;2023-05-10T00:58:43;3;3;0
55043;PMS5003;54902;50.420;18.854;2023-05-10T00:59:14;3;3;0
55043;PMS5003;54902;50.420;18.854;2023-05-10T00:59:49;3;3;0
55043;PMS5003;54902;50.420;18.854;2023-05-10T01:00:20;3;3;0
55043;PMS5003;54902;50.420;18.854;2023-05-10T01:00:51;3;3;0
55043;PMS5003;54902;50.420;18.854;2023-05-10T01:01:23;4;4;1
55043;PMS5003;54902;50.420;18.854;2023-05-10T01:01:54;4;4;1
55043;PMS5003;54902;50.420;18.854;2023-05-10T01:02:25;4;4;1
55043;PMS5003;54902;50.420;18.854;2023-05-10T01:02:56;4;4;1
55043;PMS5003;54902;50.420;18.854;2023-05-10T01:03:27;4;4;1
55043;PMS5003;54902;50.420;18.854;2023-05-10T01:03:59;4;4;1
55043;PMS5003;54902;50.420;18.854;2023-05-10T01:04:30;4;4;1
55043;PMS5003;54902;50.420;18.854;2023-05-10T01:05:01;4;4;1
55043;PMS5003;54902;50.420;18.854;2023-05-10T01:05:36;4;4;1
55043;PMS5003;54902;50.420;18.854;2023-05-10T01:06:07;4;4;1
55043;PMS5003;54902;50.420;18.854;2023-05-10T01:06:40;4;4;1
55043;PMS5003;54902;50.420;18.854;2023-05-10T01:07:12;4;4;1
55043;PMS5003;54902;50.420;18.854;2023-05-10T01:07:43;4;4;1
55043;PMS5003;54902;50.420;18.854;2023-05-10T01:08:14;4;4;1
55043;PMS5003;54902;50.420;18.854;2023-05-10T01:08:44;4;4;1
55043;PMS5003;54902;50.420;18.854;2023-05-10T01:09:15;4;4;1
55043;PMS5003;54902;50.420;18.854;2023-05-10T01:09:48;4;4;1
55043;PMS5003;54902;50.420;18.854;2023-05-10T01:10:19;4;4;1
55043;PMS5003;54902;50.420;18.854;2023-05-10T01:10:50;4;4;1
55043;PMS5003;54902;50.420;18.854;2023-05-10T01:11:22;4;4;1
55043;PMS5003;54902;50.420;18.854;2023-05-10T01:11:53;4;4;1
55043;PMS5003;54902;50.420;18.854;2023-05-10T01:12:25;7;7;5
55043;PMS5003;54902;50.420;18.854;2023-05-10T01:12:56;7;7;5
55043;PMS5003;54902;50.420;18.854;2023-05-10T01:13:31;7;7;5
55043;PMS5003;54902;50.420;18.854;2023-05-10T01:14:05;7;7;5
55043;PMS5003;54902;50.420;18.854;2023-05-10T01:14:36;7;7;5
55043;PMS5003;54902;50.420;18.854;2023-05-10T01:15:08;7;7;5
55043;PMS5003;54902;50.420;18.854;2023-05-10T01:15:41;7;7;5
55043;PMS5003;54902;50.420;18.854;2023-05-10T01:16:12;7;7;5
55043;PMS5003;54902;50.420;18.854;2023-05-10T01:16:43;7;7;5
55043;PMS5003;54902;50.420;18.854;2023-05-10T01:17:15;14;14;11
55043;PMS5003;54902;50.420;18.854;2023-05-10T01:17:47;14;14;11
55043;PMS5003;54902;50.420;18.854;2023-05-10T01:18:19;14;14;11
55043;PMS5003;54902;50.420;18.854;2023-05-10T01:18:52;14;14;11
55043;PMS5003;54902;50.420;18.854;2023-05-10T01:19:24;14;14;11
55043;PMS5003;54902;50.420;18.854;2023-05-10T01:19:56;14;14;11
55043;PMS5003;54902;50.420;18.854;2023-05-10T01:20:27;14;14;11
55043;PMS5003;54902;50.420;18.854;2023-05-10T01:23:23;14;14;11
55043;PMS5003;54902;50.420;18.854;2023-05-10T01:25:32;14;14;11
55043;PMS5003;54902;50.420;18.854;2023-05-10T01:27:02;14;14;11
55043;PMS5003;54902;50.420;18.854;2023-05-10T01:30:35;14;14;11
55043;PMS5003;54902;50.420;18.854;2023-05-10T01:32:46;14;14;11
55043;PMS5003;54902;50.420;18.854;2023-05-10T01:34:07;14;14;11
55043;PMS5003;54902;50.420;18.854;2023-05-10T01:34:48;14;14;11
55043;PMS5003;54902;50.420;18.854;2023-05-10T01:35:32;14;14;11
55043;PMS5003;54902;50.420;18.854;2023-05-10T01:36:14;12;12;9
55043;PMS5003;54902;50.420;18.854;2023-05-10T01:38:28;9;9;8
55043;PMS5003;54902;50.420;18.854;2023-05-10T01:39:23;9;9;8
55043;PMS5003;54902;50.420;18.854;2023-05-10T01:39:54;9;9;8
55043;PMS5003;54902;50.420;18.854;2023-05-10T01:40:42;9;9;8
55043;PMS5003;54902;50.420;18.854;2023-05-10T01:42:37;9;9;8
55043;PMS5003;54902;50.420;18.854;2023-05-10T01:43:17;9;9;8
55043;PMS5003;54902;50.420;18.854;2023-05-10T01:43:55;9;9;8
55043;PMS5003;54902;50.420;18.854;2023-05-10T01:45:18;13;13;12
55043;PMS5003;54902;50.420;18.854;2023-05-10T01:46:02;13;13;12
55043;PMS5003;54902;50.420;18.854;2023-05-10T01:46:41;13;13;12
55043;PMS5003;54902;50.420;18.854;2023-05-10T01:47:20;13;13;12
55043;PMS5003;54902;50.420;18.854;2023-05-10T01:47:58;13;13;12
55043;PMS5003;54902;50.420;18.854;2023-05-10T01:48:38;13;13;12
55043;PMS5003;54902;50.420;18.854;2023-05-10T01:49:24;13;13;12
55043;PMS5003;54902;50.420;18.854;2023-05-10T01:49:57;13;13;12
55043;PMS5003;54902;50.420;18.854;2023-05-10T01:50:33;13;13;12
55043;PMS5003;54902;50.420;18.854;2023-05-10T01:51:07;13;13;12
55043;PMS5003;54902;50.420;18.854;2023-05-10T01:51:47;13;13;12
55043;PMS5003;54902;50.420;18.854;2023-05-10T01:53:08;13;13;12
55043;PMS5003;54902;50.420;18.854;2023-05-10T01:53:41;13;13;12
55043;PMS5003;54902;50.420;18.854;2023-05-10T01:54:14;13;13;12
55043;PMS5003;54902;50.420;18.854;2023-05-10T01:54:53;13;13;12
55043;PMS5003;54902;50.420;18.854;2023-05-10T01:55:32;13;13;12
55043;PMS5003;54902;50.420;18.854;2023-05-10T01:56:06;13;13;12
55043;PMS5003;54902;50.420;18.854;2023-05-10T01:56:39;13;13;12
55043;PMS5003;54902;50.420;18.854;2023-05-10T01:57:13;13;13;12
55043;PMS5003;54902;50.420;18.854;2023-05-10T01:57:47;13;13;12
55043;PMS5003;54902;50.420;18.854;2023-05-10T01:58:30;13;13;12
55043;PMS5003;54902;50.420;18.854;2023-05-10T01:59:05;13;13;12
55043;PMS5003;54902;50.420;18.854;2023-05-10T01:59:39;13;13;12
55043;PMS5003;54902;50.420;18.854;2023-05-10T02:00:13;13;13;12
55043;PMS5003;54902;50.420;18.854;2023-05-10T02:00:47;13;13;12
55043;PMS5003;54902;50.420;18.854;2023-05-10T02:01:21;13;13;12
55043;PMS5003;54902;50.420;18.854;2023-05-10T02:01:53;13;13;12
55043;PMS5003;54902;50.420;18.854;2023-05-10T02:02:27;13;13;12
55043;PMS5003;54902;50.420;18.854;2023-05-10T02:02:59;13;13;12
55043;PMS5003;54902;50.420;18.854;2023-05-10T02:03:32;13;13;12
55043;PMS5003;54902;50.420;18.854;2023-05-10T02:04:06;13;13;12
55043;PMS5003;54902;50.420;18.854;2023-05-10T02:04:39;13;13;12
55043;PMS5003;54902;50.420;18.854;2023-05-10T02:05:16;13;13;12
55043;PMS5003;54902;50.420;18.854;2023-05-10T02:05:48;13;13;12
55043;PMS5003;54902;50.420;18.854;2023-05-10T02:06:21;10;10;9
55043;PMS5003;54902;50.420;18.854;2023-05-10T02:06:54;10;10;9
55043;PMS5003;54902;50.420;18.854;2023-05-10T02:07:27;10;10;9
55043;PMS5003;54902;50.420;18.854;2023-05-10T02:07:59;10;10;9
55043;PMS5003;54902;50.420;18.854;2023-05-10T02:08:33;9;9;7
55043;PMS5003;54902;50.420;18.854;2023-05-10T02:09:07;9;9;7
55043;PMS5003;54902;50.420;18.854;2023-05-10T02:09:41;9;9;7
55043;PMS5003;54902;50.420;18.854;2023-05-10T02:10:18;9;9;7
55043;PMS5003;54902;50.420;18.854;2023-05-10T02:10:52;9;9;7
55043;PMS5003;54902;50.420;18.854;2023-05-10T02:11:26;9;9;7
55043;PMS5003;54902;50.420;18.854;2023-05-10T02:11:59;9;9;7
55043;PMS5003;54902;50.420;18.854;2023-05-10T02:12:39;9;9;7
55043;PMS5003;54902;50.420;18.854;2023-05-10T02:13:12;9;9;7
55043;PMS5003;54902;50.420;18.854;2023-05-10T02:13:45;9;9;7
55043;PMS5003;54902;50.420;18.854;2023-05-10T02:14:18;12;12;9
55043;PMS5003;54902;50.420;18.854;2023-05-10T02:14:50;12;12;9
55043;PMS5003;54902;50.420;18.854;2023-05-10T02:15:23;12;12;9
55043;PMS5003;54902;50.420;18.854;2023-05-10T02:15:56;12;12;9
55043;PMS5003;54902;50.420;18.854;2023-05-10T02:16:28;12;12;9
55043;PMS5003;54902;50.420;18.854;2023-05-10T02:17:05;12;12;9
55043;PMS5003;54902;50.420;18.854;2023-05-10T02:17:38;12;12;9
55043;PMS5003;54902;50.420;18.854;2023-05-10T02:18:10;12;12;9
55043;PMS5003;54902;50.420;18.854;2023-05-10T02:18:43;12;12;9
55043;PMS5003;54902;50.420;18.854;2023-05-10T02:19:15;12;12;9
55043;PMS5003;54902;50.420;18.854;2023-05-10T02:19:47;12;12;9
55043;PMS5003;54902;50.420;18.854;2023-05-10T02:20:20;12;12;9
55043;PMS5003;54902;50.420;18.854;2023-05-10T02:20:52;12;12;9
55043;PMS5003;54902;50.420;18.854;2023-05-10T02:21:25;12;12;9
55043;PMS5003;54902;50.420;18.854;2023-05-10T02:21:58;12;12;9
55043;PMS5003;54902;50.420;18.854;2023-05-10T02:22:31;12;12;9
55043;PMS5003;54902;50.420;18.854;2023-05-10T02:23:03;12;12;9
55043;PMS5003;54902;50.420;18.854;2023-05-10T02:23:35;10;10;8
55043;PMS5003;54902;50.420;18.854;2023-05-10T02:24:07;10;10;8
55043;PMS5003;54902;50.420;18.854;2023-05-10T02:24:41;10;10;8
55043;PMS5003;54902;50.420;18.854;2023-05-10T02:25:15;11;11;9
55043;PMS5003;54902;50.420;18.854;2023-05-10T02:25:48;11;11;9
55043;PMS5003;54902;50.420;18.854;2023-05-10T02:26:21;11;11;9
55043;PMS5003;54902;50.420;18.854;2023-05-10T02:26:55;11;11;9
55043;PMS5003;54902;50.420;18.854;2023-05-10T02:27:27;11;11;9
55043;PMS5003;54902;50.420;18.854;2023-05-10T02:28:00;11;11;9
55043;PMS5003;54902;50.420;18.854;2023-05-10T02:28:33;11;11;9
55043;PMS5003;54902;50.420;18.854;2023-05-10T02:29:07;11;11;9
55043;PMS5003;54902;50.420;18.854;2023-05-10T02:29:42;11;11;9
55043;PMS5003;54902;50.420;18.854;2023-05-10T02:30:14;11;11;9
55043;PMS5003;54902;50.420;18.854;2023-05-10T02:30:47;5;5;5
55043;PMS5003;54902;50.420;18.854;2023-05-10T02:31:18;5;5;5
55043;PMS5003;54902;50.420;18.854;2023-05-10T02:31:54;5;5;5
55043;PMS5003;54902;50.420;18.854;2023-05-10T02:32:26;5;5;5
55043;PMS5003;54902;50.420;18.854;2023-05-10T02:32:58;5;5;5
55043;PMS5003;54902;50.420;18.854;2023-05-10T02:33:30;5;5;5
55043;PMS5003;54902;50.420;18.854;2023-05-10T02:34:02;5;5;5
55043;PMS5003;54902;50.420;18.854;2023-05-10T02:34:36;5;5;5
55043;PMS5003;54902;50.420;18.854;2023-05-10T02:35:09;6;6;6
55043;PMS5003;54902;50.420;18.854;2023-05-10T02:35:41;6;6;6
55043;PMS5003;54902;50.420;18.854;2023-05-10T02:36:13;7;7;7
55043;PMS5003;54902;50.420;18.854;2023-05-10T02:36:45;7;7;7
55043;PMS5003;54902;50.420;18.854;2023-05-10T02:37:17;7;7;7
55043;PMS5003;54902;50.420;18.854;2023-05-10T02:37:50;7;7;7
55043;PMS5003;54902;50.420;18.854;2023-05-10T02:38:21;7;7;7
55043;PMS5003;54902;50.420;18.854;2023-05-10T02:38:55;8;8;6
55043;PMS5003;54902;50.420;18.854;2023-05-10T02:39:27;8;8;6
55043;PMS5003;54902;50.420;18.854;2023-05-10T02:40:01;8;8;6
55043;PMS5003;54902;50.420;18.854;2023-05-10T02:40:35;8;8;6
55043;PMS5003;54902;50.420;18.854;2023-05-10T02:41:08;8;8;6
55043;PMS5003;54902;50.420;18.854;2023-05-10T02:41:41;10;10;7
55043;PMS5003;54902;50.420;18.854;2023-05-10T02:42:15;10;10;7
55043;PMS5003;54902;50.420;18.854;2023-05-10T02:42:50;10;10;7
55043;PMS5003;54902;50.420;18.854;2023-05-10T02:43:25;10;10;7
55043;PMS5003;54902;50.420;18.854;2023-05-10T02:43:57;10;10;7
55043;PMS5003;54902;50.420;18.854;2023-05-10T02:44:33;10;10;7
55043;PMS5003;54902;50.420;18.854;2023-05-10T02:45:11;10;10;7
55043;PMS5003;54902;50.420;18.854;2023-05-10T02:45:46;10;10;7
55043;PMS5003;54902;50.420;18.854;2023-05-10T02:46:18;10;10;7
55043;PMS5003;54902;50.420;18.854;2023-05-10T02:46:49;10;10;7
55043;PMS5003;54902;50.420;18.854;2023-05-10T02:47:20;12;12;9
55043;PMS5003;54902;50.420;18.854;2023-05-10T02:47:52;12;12;9
55043;PMS5003;54902;50.420;18.854;2023-05-10T02:48:23;12;12;9
55043;PMS5003;54902;50.420;18.854;2023-05-10T02:48:54;12;12;9
55043;PMS5003;54902;50.420;18.854;2023-05-10T02:49:25;12;12;9
55043;PMS5003;54902;50.420;18.854;2023-05-10T02:49:56;12;12;9
55043;PMS5003;54902;50.420;18.854;2023-05-10T02:50:27;12;12;9
55043;PMS5003;54902;50.420;18.854;2023-05-10T02:51:00;12;12;9
55043;PMS5003;54902;50.420;18.854;2023-05-10T02:51:37;10;10;7
55043;PMS5003;54902;50.420;18.854;2023-05-10T02:52:12;10;10;7
55043;PMS5003;54902;50.420;18.854;2023-05-10T02:52:50;10;10;8
55043;PMS5003;54902;50.420;18.854;2023-05-10T02:53:28;10;10;8
55043;PMS5003;54902;50.420;18.854;2023-05-10T02:54:10;10;10;8
55043;PMS5003;54902;50.420;18.854;2023-05-10T02:54:46;10;10;8
55043;PMS5003;54902;50.420;18.854;2023-05-10T02:55:21;10;10;8
55043;PMS5003;54902;50.420;18.854;2023-05-10T02:55:57;10;10;8
55043;PMS5003;54902;50.420;18.854;2023-05-10T02:56:31;10;10;8
55043;PMS5003;54902;50.420;18.854;2023-05-10T02:57:05;10;10;8
55043;PMS5003;54902;50.420;18.854;2023-05-10T02:57:38;10;10;8
55043;PMS5003;54902;50.420;18.854;2023-05-10T02:58:13;10;10;8
55043;PMS5003;54902;50.420;18.854;2023-05-10T02:58:44;16;16;11
55043;PMS5003;54902;50.420;18.854;2023-05-10T02:59:15;16;16;11
55043;PMS5003;54902;50.420;18.854;2023-05-10T02:59:50;16;16;11
55043;PMS5003;54902;50.420;18.854;2023-05-10T03:00:21;16;16;11
55043;PMS5003;54902;50.420;18.854;2023-05-10T03:00:52;16;16;11
55043;PMS5003;54902;50.420;18.854;2023-05-10T03:01:23;16;16;11
55043;PMS5003;54902;50.420;18.854;2023-05-10T03:01:54;16;16;11
55043;PMS5003;54902;50.420;18.854;2023-05-10T03:02:25;16;16;11
55043;PMS5003;54902;50.420;18.854;2023-05-10T03:02:57;16;16;11
55043;PMS5003;54902;50.420;18.854;2023-05-10T03:03:28;16;16;11
55043;PMS5003;54902;50.420;18.854;2023-05-10T03:03:59;16;16;11
55043;PMS5003;54902;50.420;18.854;2023-05-10T03:04:30;16;16;11
55043;PMS5003;54902;50.420;18.854;2023-05-10T03:05:01;16;16;11
55043;PMS5003;54902;50.420;18.854;2023-05-10T03:05:33;9;9;7
55043;PMS5003;54902;50.420;18.854;2023-05-10T03:06:04;9;9;7
55043;PMS5003;54902;50.420;18.854;2023-05-10T03:06:35;9;9;7
55043;PMS5003;54902;50.420;18.854;2023-05-10T03:07:07;9;9;7
55043;PMS5003;54902;50.420;18.854;2023-05-10T03:07:38;9;9;7
55043;PMS5003;54902;50.420;18.854;2023-05-10T03:08:09;9;9;7
55043;PMS5003;54902;50.420;18.854;2023-05-10T03:08:40;9;9;7
55043;PMS5003;54902;50.420;18.854;2023-05-10T03:09:11;11;11;9
55043;PMS5003;54902;50.420;18.854;2023-05-10T03:09:45;11;11;9
55043;PMS5003;54902;50.420;18.854;2023-05-10T03:10:16;11;11;9
55043;PMS5003;54902;50.420;18.854;2023-05-10T03:10:55;11;11;9
55043;PMS5003;54902;50.420;18.854;2023-05-10T03:13:01;11;11;9
55043;PMS5003;54902;50.420;18.854;2023-05-10T03:13:44;11;11;9
55043;PMS5003;54902;50.420;18.854;2023-05-10T03:14:32;11;11;9
55043;PMS5003;54902;50.420;18.854;2023-05-10T03:15:14;11;11;9
55043;PMS5003;54902;50.420;18.854;2023-05-10T03:16:40;6;6;5
55043;PMS5003;54902;50.420;18.854;2023-05-10T03:18:01;6;6;5
55043;PMS5003;54902;50.420;18.854;2023-05-10T03:20:06;6;6;5
55043;PMS5003;54902;50.420;18.854;2023-05-10T03:20:42;6;6;5
55043;PMS5003;54902;50.420;18.854;2023-05-10T03:21:16;6;6;5
55043;PMS5003;54902;50.420;18.854;2023-05-10T03:21:50;6;6;5
55043;PMS5003;54902;50.420;18.854;2023-05-10T03:23:04;10;10;7
55043;PMS5003;54902;50.420;18.854;2023-05-10T03:24:27;10;10;7
55043;PMS5003;54902;50.420;18.854;2023-05-10T03:25:00;10;10;7
55043;PMS5003;54902;50.420;18.854;2023-05-10T03:25:36;10;10;7
55043;PMS5003;54902;50.420;18.854;2023-05-10T03:26:12;10;10;7
55043;PMS5003;54902;50.420;18.854;2023-05-10T03:26:52;10;10;7
55043;PMS5003;54902;50.420;18.854;2023-05-10T03:27:29;10;10;7
55043;PMS5003;54902;50.420;18.854;2023-05-10T03:28:01;10;10;7
55043;PMS5003;54902;50.420;18.854;2023-05-10T03:28:35;10;10;7
55043;PMS5003;54902;50.420;18.854;2023-05-10T03:29:07;10;10;7
55043;PMS5003;54902;50.420;18.854;2023-05-10T03:29:40;10;10;7
55043;PMS5003;54902;50.420;18.854;2023-05-10T03:30:13;10;10;7
55043;PMS5003;54902;50.420;18.854;2023-05-10T03:30:45;10;10;7
55043;PMS5003;54902;50.420;18.854;2023-05-10T03:31:17;10;10;7
55043;PMS5003;54902;50.420;18.854;2023-05-10T03:31:48;10;10;7
55043;PMS5003;54902;50.420;18.854;2023-05-10T03:32:19;10;10;7
55043;PMS5003;54902;50.420;18.854;2023-05-10T03:32:50;10;10;7
55043;PMS5003;54902;50.420;18.854;2023-05-10T03:33:21;10;10;7
55043;PMS5003;54902;50.420;18.854;2023-05-10T03:33:52;10;10;7
55043;PMS5003;54902;50.420;18.854;2023-05-10T03:34:24;7;7;5
55043;PMS5003;54902;50.420;18.854;2023-05-10T03:35:00;7;7;5
55043;PMS5003;54902;50.420;18.854;2023-05-10T03:35:31;7;7;5
55043;PMS5003;54902;50.420;18.854;2023-05-10T03:36:03;7;7;5
55043;PMS5003;54902;50.420;18.854;2023-05-10T03:36:34;7;7;5
55043;PMS5003;54902;50.420;18.854;2023-05-10T03:37:06;7;7;5
55043;PMS5003;54902;50.420;18.854;2023-05-10T03:37:37;7;7;5
55043;PMS5003;54902;50.420;18.854;2023-05-10T03:38:08;7;7;5
55043;PMS5003;54902;50.420;18.854;2023-05-10T03:38:39;7;7;5
55043;PMS5003;54902;50.420;18.854;2023-05-10T03:39:09;3;3;2
55043;PMS5003;54902;50.420;18.854;2023-05-10T03:39:40;3;3;2
55043;PMS5003;54902;50.420;18.854;2023-05-10T03:40:12;3;3;2
55043;PMS5003;54902;50.420;18.854;2023-05-10T03:40:43;3;3;2
55043;PMS5003;54902;50.420;18.854;2023-05-10T03:41:14;3;3;2
55043;PMS5003;54902;50.420;18.854;2023-05-10T03:41:45;3;3;2
55043;PMS5003;54902;50.420;18.854;2023-05-10T03:42:15;3;3;2
55043;PMS5003;54902;50.420;18.854;2023-05-10T03:42:48;3;3;2
55043;PMS5003;54902;50.420;18.854;2023-05-10T03:43:19;3;3;2
55043;PMS5003;54902;50.420;18.854;2023-05-10T03:43:53;3;3;2
55043;PMS5003;54902;50.420;18.854;2023-05-10T03:44:23;9;9;6
55043;PMS5003;54902;50.420;18.854;2023-05-10T03:44:54;9;9;6
55043;PMS5003;54902;50.420;18.854;2023-05-10T03:45:26;9;9;6
55043;PMS5003;54902;50.420;18.854;2023-05-10T03:45:57;9;9;6
55043;PMS5003;54902;50.420;18.854;2023-05-10T03:46:28;9;9;6
55043;PMS5003;54902;50.420;18.854;2023-05-10T03:46:59;9;9;6
55043;PMS5003;54902;50.420;18.854;2023-05-10T03:47:30;9;9;6
55043;PMS5003;54902;50.420;18.854;2023-05-10T03:48:01;9;9;6
55043;PMS5003;54902;50.420;18.854;2023-05-10T03:48:32;9;9;6
55043;PMS5003;54902;50.420;18.854;2023-05-10T03:49:03;9;9;6
55043;PMS5003;54902;50.420;18.854;2023-05-10T03:49:34;9;9;6
55043;PMS5003;54902;50.420;18.854;2023-05-10T03:50:06;9;9;6
55043;PMS5003;54902;50.420;18.854;2023-05-10T03:50:37;9;9;6
55043;PMS5003;54902;50.420;18.854;2023-05-10T03:51:08;9;9;6
55043;PMS5003;54902;50.420;18.854;2023-05-10T03:51:39;9;9;6
55043;PMS5003;54902;50.420;18.854;2023-05-10T03:52:10;8;8;6
55043;PMS5003;54902;50.420;18.854;2023-05-10T03:52:41;8;8;6
55043;PMS5003;54902;50.420;18.854;2023-05-10T03:53:12;8;8;6
55043;PMS5003;54902;50.420;18.854;2023-05-10T03:53:43;8;8;6
55043;PMS5003;54902;50.420;18.854;2023-05-10T03:54:15;8;8;6